createdAt,value
2023-05-07T00:00:38.994Z,7.22
2023-05-07T00:03:06.651Z,26.08
2023-05-07T00:05:34.360Z,8.00
2023-05-07T00:08:02.068Z,20.67
2023-05-07T00:10:29.543Z,7.43
2023-05-07T00:12:57.122Z,5.35
2023-05-07T00:15:24.605Z,6.13
2023-05-07T00:17:52.120Z,6.15
2023-05-07T00:20:19.649Z,14.45
2023-05-07T00:22:47.174Z,11.73
2023-05-07T00:25:14.665Z,13.75
2023-05-07T00:27:42.085Z,9.05
2023-05-07T00:30:10.050Z,9.45
2023-05-07T00:32:37.890Z,6.82
2023-05-07T00:35:06.602Z,11.57
2023-05-07T00:37:34.280Z,6.85
2023-05-07T00:40:04.222Z,10.48
2023-05-07T00:42:33.421Z,10.65
2023-05-07T00:45:01.038Z,20.20
2023-05-07T00:47:28.615Z,8.55
2023-05-07T00:49:56.221Z,18.83
2023-05-07T00:52:26.741Z,12.82
2023-05-07T00:54:55.026Z,10.48
2023-05-07T00:57:24.580Z,62.92
2023-05-07T00:59:52.978Z,18.20
2023-05-07T01:02:20.476Z,39.03
2023-05-07T01:04:48.003Z,28.08
2023-05-07T01:07:16.385Z,25.30
2023-05-07T01:09:43.900Z,15.90
2023-05-07T01:12:12.053Z,26.25
2023-05-07T01:14:39.628Z,19.08
2023-05-07T01:17:07.876Z,14.05
2023-05-07T01:19:35.880Z,8.25
2023-05-07T01:22:08.550Z,21.02
2023-05-07T01:24:45.068Z,22.23
2023-05-07T01:27:13.549Z,8.32
2023-05-07T01:29:41.723Z,11.02
2023-05-07T01:32:10.107Z,12.82
2023-05-07T01:34:38.287Z,17.95
2023-05-07T01:37:06.440Z,20.35
2023-05-07T01:39:34.380Z,6.63
2023-05-07T01:42:01.937Z,32.03
2023-05-07T01:44:29.989Z,10.02
2023-05-07T01:46:58.925Z,9.13
2023-05-07T01:49:27.216Z,10.95
2023-05-07T01:51:54.755Z,18.17
2023-05-07T01:54:29.216Z,7.03
2023-05-07T01:56:58.539Z,8.40
2023-05-07T01:59:26.178Z,9.25
2023-05-07T02:01:53.680Z,25.02
2023-05-07T02:04:21.548Z,8.52
2023-05-07T02:06:49.195Z,8.95
2023-05-07T02:09:18.772Z,10.75
2023-05-07T02:11:48.711Z,8.48
2023-05-07T02:14:16.524Z,6.68
2023-05-07T02:16:44.122Z,7.63
2023-05-07T02:19:13.928Z,7.95
2023-05-07T02:21:41.368Z,15.23
2023-05-07T02:24:08.890Z,10.05
2023-05-07T02:26:36.427Z,7.80
2023-05-07T02:29:03.965Z,10.52
2023-05-07T02:31:32.528Z,8.48
2023-05-07T02:34:00.271Z,9.05
2023-05-07T02:36:28.082Z,6.70
2023-05-07T02:39:04.888Z,8.23
2023-05-07T02:41:33.097Z,8.18
2023-05-07T02:44:00.634Z,15.80
2023-05-07T02:46:28.541Z,7.97
2023-05-07T02:49:07.140Z,7.50
2023-05-07T02:51:34.980Z,9.30
2023-05-07T02:54:05.439Z,7.43
2023-05-07T02:56:33.921Z,7.60
2023-05-07T02:59:01.411Z,9.45
2023-05-07T03:01:33.641Z,6.65
2023-05-07T03:04:04.984Z,7.18
2023-05-07T03:06:32.532Z,21.13
2023-05-07T03:09:00.063Z,9.55
2023-05-07T03:11:27.749Z,8.77
2023-05-07T03:13:55.254Z,7.38
2023-05-07T03:16:23.640Z,10.45
2023-05-07T03:18:51.180Z,27.23
2023-05-07T03:21:18.922Z,9.13
2023-05-07T03:23:46.412Z,11.52
2023-05-07T03:26:14.442Z,9.02
2023-05-07T03:28:42.431Z,19.95
2023-05-07T03:31:13.354Z,13.57
2023-05-07T03:33:55.215Z,27.92
2023-05-07T03:36:23.334Z,22.17
2023-05-07T03:38:51.542Z,15.05
2023-05-07T03:41:22.033Z,29.60
2023-05-07T03:43:49.589Z,12.63
2023-05-07T03:46:17.445Z,37.08
2023-05-07T03:48:45.976Z,18.08
2023-05-07T03:51:16.439Z,15.20
2023-05-07T03:53:43.973Z,13.85
2023-05-07T03:56:11.471Z,16.80
2023-05-07T03:58:41.270Z,21.25
2023-05-07T04:01:11.395Z,9.20
2023-05-07T04:03:39.061Z,14.35
2023-05-07T04:06:07.186Z,30.35
2023-05-07T04:08:36.336Z,19.67
2023-05-07T04:11:05.137Z,24.50
2023-05-07T04:13:34.427Z,47.53
2023-05-07T04:16:05.298Z,43.25
2023-05-07T04:18:35.541Z,18.20
2023-05-07T04:21:03.122Z,19.67
2023-05-07T04:23:31.053Z,17.58
2023-05-07T04:26:02.507Z,19.73
2023-05-07T04:28:39.035Z,14.77
2023-05-07T04:31:07.085Z,26.08
2023-05-07T04:33:36.652Z,21.48
2023-05-07T04:36:05.418Z,35.58
2023-05-07T04:38:37.858Z,14.23
2023-05-07T04:41:07.561Z,21.45
2023-05-07T04:43:39.164Z,19.42
2023-05-07T04:46:06.701Z,24.08
2023-05-07T04:48:34.258Z,26.90
2023-05-07T04:51:03.382Z,20.20
2023-05-07T04:53:30.997Z,9.82
2023-05-07T04:55:59.536Z,18.20
2023-05-07T04:58:33.630Z,9.70
2023-05-07T05:01:02.047Z,17.23
2023-05-07T05:03:31.236Z,21.45
2023-05-07T05:06:00.490Z,35.92
2023-05-07T05:08:32.106Z,23.38
2023-05-07T05:11:02.947Z,11.40
2023-05-07T05:13:31.808Z,8.23
2023-05-07T05:15:59.716Z,14.43
2023-05-07T05:18:29.033Z,12.18
2023-05-07T05:20:56.966Z,18.98
2023-05-07T05:23:24.915Z,12.35
2023-05-07T05:25:57.578Z,40.03
2023-05-07T05:28:26.930Z,28.52
2023-05-07T05:30:54.560Z,14.25
2023-05-07T05:33:23.960Z,28.95
2023-05-07T05:35:51.895Z,25.65
2023-05-07T05:38:19.996Z,45.22
2023-05-07T05:40:48.053Z,43.92
2023-05-07T05:43:16.066Z,59.33
2023-05-07T05:45:43.808Z,19.23
2023-05-07T05:48:11.535Z,35.78
2023-05-07T05:50:39.704Z,10.43
2023-05-07T05:53:08.004Z,69.03
2023-05-07T05:55:35.755Z,41.35
2023-05-07T05:58:03.417Z,25.02
2023-05-07T06:00:34.161Z,26.52
2023-05-07T06:03:05.091Z,32.63
2023-05-07T06:05:32.669Z,24.83
2023-05-07T06:08:00.169Z,19.95
2023-05-07T06:10:31.931Z,23.23
2023-05-07T06:12:59.547Z,35.30
2023-05-07T06:15:27.100Z,20.20
2023-05-07T06:17:57.072Z,15.90
2023-05-07T06:20:24.864Z,11.98
2023-05-07T06:22:52.324Z,57.00
2023-05-07T06:25:20.300Z,16.38
2023-05-07T06:27:47.756Z,55.42
2023-05-07T06:30:15.395Z,23.20
2023-05-07T06:32:42.832Z,19.48
2023-05-07T06:35:11.481Z,19.90
2023-05-07T06:37:43.531Z,17.65
2023-05-07T06:40:16.646Z,15.40
2023-05-07T06:42:45.863Z,12.65
2023-05-07T06:45:35.938Z,29.65
2023-05-07T06:48:04.201Z,27.83
2023-05-07T06:50:35.999Z,24.58
2023-05-07T06:53:04.434Z,25.50
2023-05-07T06:55:32.040Z,33.63
2023-05-07T06:58:02.148Z,23.33
2023-05-07T07:00:29.964Z,61.47
2023-05-07T07:02:57.998Z,23.40
2023-05-07T07:05:28.495Z,17.42
2023-05-07T07:07:58.594Z,55.45
2023-05-07T07:10:27.073Z,29.88
2023-05-07T07:12:56.085Z,32.95
2023-05-07T07:15:26.015Z,18.95
2023-05-07T07:17:55.098Z,37.10
2023-05-07T07:20:23.749Z,18.85
2023-05-07T07:22:51.745Z,29.02
2023-05-07T07:25:19.272Z,47.03
2023-05-07T07:27:46.812Z,35.78
2023-05-07T07:30:15.754Z,32.08
2023-05-07T07:32:47.220Z,37.58
2023-05-07T07:35:15.969Z,34.92
2023-05-07T07:37:45.461Z,26.17
2023-05-07T07:40:15.474Z,30.13
2023-05-07T07:42:43.244Z,29.08
2023-05-07T07:45:11.638Z,18.13
2023-05-07T07:47:42.941Z,19.48
2023-05-07T07:50:12.347Z,14.73
2023-05-07T07:52:43.117Z,22.00
2023-05-07T07:55:11.579Z,10.98
2023-05-07T07:57:39.790Z,12.48
2023-05-07T08:00:08.572Z,13.10
2023-05-07T08:02:44.242Z,17.90
2023-05-07T08:05:18.098Z,16.58
2023-05-07T08:07:47.419Z,21.52
2023-05-07T08:10:22.118Z,17.05
2023-05-07T08:12:53.140Z,18.92
2023-05-07T08:15:21.232Z,17.30
2023-05-07T08:17:50.924Z,19.20
2023-05-07T08:20:18.918Z,12.90
2023-05-07T08:22:46.839Z,15.05
2023-05-07T08:25:14.465Z,17.45
2023-05-07T08:27:41.954Z,11.20
2023-05-07T08:30:10.241Z,21.95
2023-05-07T08:32:37.905Z,16.55
2023-05-07T08:35:06.223Z,13.32
2023-05-07T08:37:33.797Z,15.57
2023-05-07T08:40:01.920Z,24.15
2023-05-07T08:42:37.345Z,24.90
2023-05-07T08:45:09.984Z,24.98
2023-05-07T08:48:00.148Z,33.38
2023-05-07T08:50:33.041Z,29.42
2023-05-07T08:53:01.297Z,26.52
2023-05-07T08:55:31.011Z,27.95
2023-05-07T08:57:58.940Z,43.15
2023-05-07T09:00:26.384Z,41.95
2023-05-07T09:02:57.137Z,52.65
2023-05-07T09:05:25.192Z,30.70
2023-05-07T09:07:54.505Z,35.83
2023-05-07T09:10:23.224Z,49.33
2023-05-07T09:12:52.097Z,18.33
2023-05-07T09:15:19.992Z,22.40
2023-05-07T09:17:47.829Z,24.75
2023-05-07T09:20:17.323Z,24.00
2023-05-07T09:22:45.525Z,50.90
2023-05-07T09:25:20.093Z,32.13
2023-05-07T09:27:47.714Z,22.95
2023-05-07T09:30:15.221Z,31.40
2023-05-07T09:32:42.871Z,36.58
2023-05-07T09:35:22.767Z,39.83
2023-05-07T09:37:56.690Z,52.85
2023-05-07T09:40:26.814Z,71.78
2023-05-07T09:42:55.805Z,42.90
2023-05-07T09:45:27.498Z,44.75
2023-05-07T09:47:57.522Z,54.60
2023-05-07T09:50:33.447Z,146.02
2023-05-07T09:53:02.477Z,32.80
2023-05-07T09:55:30.792Z,39.15
2023-05-07T09:57:59.896Z,33.10
2023-05-07T10:00:29.953Z,60.30
2023-05-07T10:03:06.910Z,36.10
2023-05-07T10:05:45.578Z,58.13
2023-05-07T10:08:14.805Z,22.23
2023-05-07T10:10:42.888Z,76.78
2023-05-07T10:13:14.303Z,43.28
2023-05-07T10:15:46.425Z,36.58
2023-05-07T10:18:14.844Z,27.08
2023-05-07T10:20:46.456Z,52.80
2023-05-07T10:23:16.961Z,41.42
2023-05-07T10:25:48.576Z,29.75
2023-05-07T10:28:22.773Z,38.55
2023-05-07T10:31:16.096Z,22.38
2023-05-07T10:33:49.889Z,17.45
2023-05-07T10:36:19.834Z,15.75
2023-05-07T10:38:47.868Z,12.98
2023-05-07T10:41:18.027Z,12.60
2023-05-07T10:43:46.954Z,12.25
2023-05-07T10:46:31.897Z,9.02
2023-05-07T10:49:08.416Z,8.88
2023-05-07T10:51:48.268Z,7.97
2023-05-07T10:54:24.864Z,8.27
2023-05-07T10:57:39.516Z,9.70
2023-05-07T11:00:38.927Z,7.38
2023-05-07T11:03:12.908Z,8.32
2023-05-07T11:06:15.208Z,6.10
2023-05-07T11:09:04.953Z,9.32
2023-05-07T11:11:56.812Z,5.03
2023-05-07T11:14:43.620Z,6.30
2023-05-07T11:17:18.912Z,8.77
2023-05-07T11:19:56.745Z,8.02
2023-05-07T11:22:32.986Z,8.88
2023-05-07T11:25:10.588Z,8.65
2023-05-07T11:27:38.608Z,6.82
2023-05-07T11:30:07.201Z,7.60
2023-05-07T11:32:35.203Z,9.05
2023-05-07T11:35:03.223Z,10.38
2023-05-07T11:37:31.323Z,9.85
2023-05-07T11:40:10.335Z,6.50
2023-05-07T11:42:39.771Z,6.13
2023-05-07T11:45:08.445Z,8.63
2023-05-07T11:47:36.080Z,5.47
2023-05-07T11:50:06.314Z,9.38
2023-05-07T11:52:34.233Z,7.63
2023-05-07T11:55:02.950Z,10.82
2023-05-07T11:57:30.634Z,8.32
2023-05-07T11:59:59.546Z,10.75
2023-05-07T12:02:27.719Z,8.75
2023-05-07T12:04:56.214Z,10.10
2023-05-07T12:07:25.926Z,7.05
2023-05-07T12:09:54.568Z,7.65
2023-05-07T12:12:22.042Z,9.95
2023-05-07T12:14:49.677Z,7.82
2023-05-07T12:17:18.128Z,7.57
2023-05-07T12:19:46.478Z,10.90
2023-05-07T12:22:14.383Z,16.52
2023-05-07T12:24:49.835Z,15.68
2023-05-07T12:27:18.706Z,18.08
2023-05-07T12:29:51.314Z,15.02
2023-05-07T12:32:20.503Z,15.32
2023-05-07T12:34:50.875Z,14.35
2023-05-07T12:37:29.004Z,15.48
2023-05-07T12:40:10.647Z,19.35
2023-05-07T12:42:39.243Z,14.50
2023-05-07T12:45:19.225Z,17.48
2023-05-07T12:47:47.797Z,12.95
2023-05-07T12:50:16.587Z,14.23
2023-05-07T12:52:46.039Z,12.70
2023-05-07T12:55:16.223Z,14.05
2023-05-07T12:57:46.938Z,13.18
2023-05-07T13:00:15.223Z,19.75
2023-05-07T13:02:45.881Z,13.73
2023-05-07T13:05:14.284Z,15.88
2023-05-07T13:07:42.721Z,16.92
2023-05-07T13:10:10.746Z,18.98
2023-05-07T13:12:38.325Z,21.58
2023-05-07T13:15:06.270Z,20.63
2023-05-07T13:17:33.960Z,24.30
2023-05-07T13:20:01.550Z,22.48
2023-05-07T13:22:29.717Z,22.30
2023-05-07T13:24:57.220Z,68.30
2023-05-07T13:27:24.664Z,22.73
2023-05-07T13:29:52.191Z,17.52
2023-05-07T13:32:19.749Z,16.15
2023-05-07T13:34:47.171Z,15.85
2023-05-07T13:37:14.741Z,21.10
2023-05-07T13:39:42.319Z,21.15
2023-05-07T13:42:09.779Z,13.82
2023-05-07T13:44:37.249Z,12.23
2023-05-07T13:47:04.753Z,12.60
2023-05-07T13:49:32.204Z,10.52
2023-05-07T13:51:59.687Z,8.60
2023-05-07T13:54:27.201Z,9.38
2023-05-07T13:56:54.698Z,9.13
2023-05-07T13:59:22.164Z,7.10
2023-05-07T14:01:50.663Z,6.00
2023-05-07T14:04:18.075Z,6.20
2023-05-07T14:06:45.567Z,9.10
2023-05-07T14:09:14.357Z,8.60
2023-05-07T14:11:42.409Z,7.07
2023-05-07T14:14:12.859Z,5.65
2023-05-07T14:16:40.543Z,7.38
2023-05-07T14:19:08.084Z,5.72
2023-05-07T14:21:35.530Z,4.40
2023-05-07T14:24:03.084Z,5.15
2023-05-07T14:26:30.735Z,5.72
2023-05-07T14:28:59.434Z,6.22
2023-05-07T14:31:27.385Z,6.47
2023-05-07T14:33:54.956Z,8.07
2023-05-07T14:36:23.859Z,6.05
2023-05-07T14:38:51.343Z,4.38
2023-05-07T14:41:18.968Z,5.07
2023-05-07T14:43:51.154Z,6.70
2023-05-07T14:46:19.454Z,4.60
2023-05-07T14:48:47.283Z,4.57
2023-05-07T14:51:15.361Z,9.63
2023-05-07T14:53:43.183Z,9.45
2023-05-07T14:56:10.994Z,11.40
2023-05-07T14:58:39.076Z,10.68
2023-05-07T15:01:06.575Z,15.75
2023-05-07T15:03:35.273Z,16.63
2023-05-07T15:06:03.718Z,18.15
2023-05-07T15:08:31.314Z,24.75
2023-05-07T15:10:58.970Z,19.02
2023-05-07T15:13:26.686Z,27.70
2023-05-07T15:15:54.343Z,24.83
2023-05-07T15:18:22.739Z,39.90
2023-05-07T15:20:50.675Z,29.58
2023-05-07T15:23:18.250Z,37.75
2023-05-07T15:25:50.426Z,29.73
2023-05-07T15:28:20.433Z,29.05
2023-05-07T15:30:47.944Z,35.35
2023-05-07T15:33:15.655Z,31.75
2023-05-07T15:35:43.099Z,104.97
2023-05-07T15:38:10.585Z,66.28
2023-05-07T15:40:42.641Z,40.42
2023-05-07T15:43:11.195Z,48.75
2023-05-07T15:45:42.903Z,79.03
2023-05-07T15:48:11.886Z,51.08
2023-05-07T15:50:39.619Z,51.55
2023-05-07T15:53:07.118Z,52.05
2023-05-07T15:55:34.859Z,59.83
2023-05-07T15:58:04.314Z,82.30
2023-05-07T16:00:31.816Z,48.97
2023-05-07T16:02:59.485Z,63.67
2023-05-07T16:05:26.975Z,89.13
2023-05-07T16:07:55.257Z,43.40
2023-05-07T16:10:22.948Z,48.13
2023-05-07T16:12:50.447Z,30.55
2023-05-07T16:15:18.048Z,35.03
2023-05-07T16:17:48.718Z,28.02
2023-05-07T16:20:19.855Z,44.10
2023-05-07T16:22:47.472Z,50.58
2023-05-07T16:25:15.132Z,78.10
2023-05-07T16:27:42.741Z,42.53
2023-05-07T16:30:10.802Z,56.03
2023-05-07T16:32:38.421Z,50.85
2023-05-07T16:35:06.542Z,56.75
2023-05-07T16:37:34.453Z,47.28
2023-05-07T16:40:06.022Z,47.25
2023-05-07T16:42:35.153Z,62.88
2023-05-07T16:45:04.684Z,63.38
2023-05-07T16:47:32.773Z,68.25
2023-05-07T16:50:05.928Z,52.83
2023-05-07T16:52:33.671Z,51.58
2023-05-07T16:55:01.686Z,37.85
2023-05-07T16:57:32.670Z,47.42
2023-05-07T17:00:00.704Z,49.42
2023-05-07T17:02:28.540Z,74.88
2023-05-07T17:04:56.142Z,85.32
2023-05-07T17:07:25.679Z,59.10
2023-05-07T17:09:53.240Z,69.57
2023-05-07T17:12:21.239Z,48.72
2023-05-07T17:14:48.832Z,75.35
2023-05-07T17:17:16.291Z,69.35
2023-05-07T17:19:44.537Z,56.63
2023-05-07T17:22:12.018Z,92.60
2023-05-07T17:24:39.503Z,82.57
2023-05-07T17:27:06.976Z,70.55
2023-05-07T17:29:34.581Z,90.88
2023-05-07T17:32:02.252Z,77.15
2023-05-07T17:34:31.512Z,57.05
2023-05-07T17:36:59.096Z,60.38
2023-05-07T17:39:26.668Z,87.63
2023-05-07T17:41:54.104Z,79.80
2023-05-07T17:44:21.669Z,73.25
2023-05-07T17:46:49.060Z,78.10
2023-05-07T17:49:17.308Z,60.83
2023-05-07T17:51:54.008Z,69.40
2023-05-07T17:54:26.140Z,55.00
2023-05-07T17:56:54.286Z,67.00
2023-05-07T17:59:22.064Z,87.97
2023-05-07T18:01:49.900Z,77.22
2023-05-07T18:04:17.598Z,47.25
2023-05-07T18:06:45.118Z,58.53
2023-05-07T18:09:12.637Z,46.85
2023-05-07T18:11:40.179Z,98.45
2023-05-07T18:14:07.722Z,55.17
2023-05-07T18:16:35.705Z,71.70
2023-05-07T18:19:03.322Z,60.75
2023-05-07T18:21:30.881Z,60.17
2023-05-07T18:23:58.402Z,51.30
2023-05-07T18:26:25.989Z,40.63
2023-05-07T18:28:53.456Z,63.25
2023-05-07T18:31:21.497Z,47.20
2023-05-07T18:33:52.951Z,49.72
2023-05-07T18:36:20.649Z,78.18
2023-05-07T18:38:48.311Z,51.50
2023-05-07T18:41:16.555Z,54.05
2023-05-07T18:43:44.039Z,72.45
2023-05-07T18:46:11.712Z,59.22
2023-05-07T18:48:39.727Z,45.53
2023-05-07T18:51:08.676Z,53.03
2023-05-07T18:53:36.217Z,74.53
2023-05-07T18:56:03.928Z,64.63
2023-05-07T18:58:31.548Z,73.40
2023-05-07T19:00:59.436Z,60.63
2023-05-07T19:03:27.484Z,52.40
2023-05-07T19:05:56.095Z,61.08
2023-05-07T19:08:23.912Z,73.03
2023-05-07T19:10:51.661Z,57.83
2023-05-07T19:13:19.286Z,92.82
2023-05-07T19:15:46.919Z,52.13
2023-05-07T19:18:14.798Z,37.13
2023-05-07T19:20:42.747Z,60.22
2023-05-07T19:23:11.662Z,58.80
2023-05-07T19:25:39.196Z,55.22
2023-05-07T19:28:07.229Z,61.65
2023-05-07T19:30:35.248Z,75.65
2023-05-07T19:33:02.888Z,65.90
2023-05-07T19:35:31.490Z,85.75
2023-05-07T19:37:59.071Z,46.75
2023-05-07T19:40:26.908Z,61.78
2023-05-07T19:42:54.387Z,36.63
2023-05-07T19:45:22.052Z,49.30
2023-05-07T19:47:51.265Z,89.60
2023-05-07T19:50:19.051Z,51.42
2023-05-07T19:52:46.927Z,71.18
2023-05-07T19:55:15.344Z,53.05
2023-05-07T19:57:43.621Z,40.10
2023-05-07T20:00:12.107Z,40.10
2023-05-07T20:02:42.381Z,36.03
2023-05-07T20:05:11.474Z,64.53
2023-05-07T20:07:39.279Z,44.45
2023-05-07T20:10:10.747Z,34.22
2023-05-07T20:12:38.529Z,43.22
2023-05-07T20:15:06.509Z,40.33
2023-05-07T20:17:34.056Z,21.70
2023-05-07T20:20:01.619Z,47.28
2023-05-07T20:22:32.231Z,22.05
2023-05-07T20:24:59.706Z,38.70
2023-05-07T20:27:27.586Z,47.78
2023-05-07T20:29:55.128Z,29.48
2023-05-07T20:32:22.585Z,26.40
2023-05-07T20:34:50.160Z,53.03
2023-05-07T20:37:17.713Z,36.20
2023-05-07T20:39:45.331Z,48.10
2023-05-07T20:42:12.809Z,42.65
2023-05-07T20:44:40.349Z,60.80
2023-05-07T20:47:07.841Z,51.58
2023-05-07T20:49:35.902Z,25.48
2023-05-07T20:52:03.418Z,29.90
2023-05-07T20:54:30.952Z,32.92
2023-05-07T20:57:00.166Z,58.05
2023-05-07T20:59:27.776Z,28.23
2023-05-07T21:01:56.782Z,45.60
2023-05-07T21:04:24.328Z,18.63
2023-05-07T21:06:51.816Z,36.70
2023-05-07T21:09:20.133Z,46.85
2023-05-07T21:11:47.637Z,36.08
2023-05-07T21:14:15.596Z,30.73
2023-05-07T21:16:44.188Z,24.23
2023-05-07T21:19:12.368Z,64.00
2023-05-07T21:21:41.644Z,31.75
2023-05-07T21:24:09.409Z,46.55
2023-05-07T21:26:36.894Z,49.05
2023-05-07T21:29:04.742Z,36.88
2023-05-07T21:31:32.310Z,50.50
2023-05-07T21:33:59.806Z,47.40
2023-05-07T21:36:27.380Z,28.50
2023-05-07T21:38:55.154Z,28.25
2023-05-07T21:41:22.722Z,20.40
2023-05-07T21:43:50.310Z,31.17
2023-05-07T21:46:19.254Z,48.08
2023-05-07T21:48:46.799Z,44.63
2023-05-07T21:51:14.210Z,36.45
2023-05-07T21:53:42.054Z,25.27
2023-05-07T21:56:09.534Z,18.23
2023-05-07T21:58:37.036Z,44.42
2023-05-07T22:01:05.505Z,37.10
2023-05-07T22:03:33.055Z,19.25
2023-05-07T22:06:00.853Z,23.60
2023-05-07T22:08:28.504Z,34.10
2023-05-07T22:10:55.956Z,39.72
2023-05-07T22:13:23.603Z,30.73
2023-05-07T22:15:57.300Z,39.20
2023-05-07T22:18:25.711Z,26.15
2023-05-07T22:20:53.317Z,57.35
2023-05-07T22:23:20.789Z,29.55
2023-05-07T22:25:48.258Z,38.25
2023-05-07T22:28:15.953Z,50.25
2023-05-07T22:30:43.521Z,35.20
2023-05-07T22:33:11.152Z,17.23
2023-05-07T22:35:38.579Z,32.35
2023-05-07T22:38:06.067Z,45.92
2023-05-07T22:40:33.495Z,59.05
2023-05-07T22:43:01.027Z,17.17
2023-05-07T22:45:28.617Z,27.80
2023-05-07T22:47:56.247Z,32.95
2023-05-07T22:50:23.775Z,95.35
2023-05-07T22:52:51.407Z,32.97
2023-05-07T22:55:18.932Z,33.08
2023-05-07T22:57:46.501Z,20.45
2023-05-07T23:00:14.606Z,75.70
2023-05-07T23:02:42.482Z,50.30
2023-05-07T23:05:10.040Z,34.05
2023-05-07T23:07:37.629Z,70.18
2023-05-07T23:10:05.748Z,38.78
2023-05-07T23:12:33.171Z,19.90
2023-05-07T23:15:01.014Z,28.00
2023-05-07T23:17:28.501Z,21.25
2023-05-07T23:19:56.149Z,30.38
2023-05-07T23:22:23.857Z,17.90
2023-05-07T23:24:51.350Z,17.58
2023-05-07T23:27:18.815Z,44.00
2023-05-07T23:29:46.799Z,33.33
2023-05-07T23:32:14.250Z,17.80
2023-05-07T23:34:41.721Z,15.57
2023-05-07T23:37:10.467Z,15.30
2023-05-07T23:39:37.954Z,11.05
2023-05-07T23:42:05.509Z,33.90
2023-05-07T23:44:33.026Z,11.85
2023-05-07T23:47:00.620Z,12.27
2023-05-07T23:49:28.252Z,18.00
2023-05-07T23:51:55.810Z,13.30
2023-05-07T23:54:23.296Z,22.88
2023-05-07T23:56:50.722Z,28.50
2023-05-07T23:59:18.431Z,14.07
